< Typhoon 197432 1975 Season Typhoon 197502 >
Typhoon 197501 (LOLA)
General InformationTrack Information on Google Maps || Disaster Info.ResourceGoogle EarthGE AnimationAtom FeedGeoJSON
Detalied Best Track (Time Zone = UTC)
Year Month Day Hour Lat. Long. Pressure (hPa) Wind (kt) Class Image Chart
1975 1 19 00 9.0 140.0 1006 0 2 -- Chart
1975 1 19 06 8.7 139.7 1006 0 2 -- Chart
1975 1 19 12 8.5 139.3 1006 0 2 -- Chart
1975 1 19 18 8.3 138.9 1004 0 2 -- Chart
1975 1 20 00 8.2 138.6 1006 0 2 -- Chart
1975 1 20 06 8.0 138.2 1004 0 2 -- Chart
1975 1 20 12 7.8 137.7 1004 0 2 -- Chart
1975 1 20 18 7.7 137.4 1004 0 2 -- Chart
1975 1 21 00 7.6 137.0 1004 0 2 -- Chart
1975 1 21 06 7.5 136.6 1004 0 2 -- Chart
1975 1 21 12 7.4 136.2 1004 0 2 -- Chart
1975 1 21 18 7.4 135.8 1004 0 2 -- Chart
1975 1 22 00 7.5 135.5 1002 0 2 -- Chart
1975 1 22 06 7.6 135.1 996 0 9 -- Chart
1975 1 22 12 7.7 134.6 994 0 9 -- Chart
1975 1 22 18 7.8 134.3 990 0 9 -- Chart
1975 1 23 00 8.0 133.9 985 0 9 -- Chart
1975 1 23 06 8.5 132.9 985 0 9 -- Chart
1975 1 23 12 8.8 131.3 980 0 9 -- Chart
1975 1 23 18 8.8 129.8 980 0 9 -- Chart
1975 1 24 00 8.9 128.2 975 0 9 -- Chart
1975 1 24 06 9.4 126.4 980 0 9 -- Chart
1975 1 24 12 10.0 124.4 990 0 9 -- Chart
1975 1 24 18 10.6 122.5 995 0 9 -- Chart
1975 1 25 00 11.3 120.3 995 0 9 -- Chart
1975 1 25 06 11.7 118.9 995 0 9 -- Chart
1975 1 25 12 12.3 117.3 995 0 9 -- Chart
1975 1 25 18 13.0 115.5 995 0 9 -- Chart
1975 1 26 00 13.9 114.1 995 0 9 -- Chart
1975 1 26 06 14.6 113.4 995 0 9 -- Chart
1975 1 26 12 15.4 112.9 995 0 9 -- Chart
1975 1 26 18 16.0 112.5 995 0 9 -- Chart
1975 1 27 00 16.6 112.3 998 0 9 -- Chart
1975 1 27 06 16.9 112.6 996 0 9 -- Chart
1975 1 27 12 16.3 112.8 996 0 9 -- Chart
1975 1 27 18 15.7 112.5 1000 0 9 -- Chart
1975 1 28 00 15.0 112.2 1000 0 9 -- Chart
1975 1 28 06 14.0 111.7 1004 0 2 -- Chart
1975 1 28 12 13.0 111.5 1010 0 2 -- Chart
Japan Meteorological Agency Best Track Data | Correction Date : 1989-06-01
< Typhoon 197432 1975 Season Typhoon 197502 >

Help